sensor_id;sensor_type;location;lat;lon;timestamp;P1;durP1;ratioP1;P2;durP2;ratioP2
28529;SDS011;15737;49.760;6.632;2022-08-21T00:00:53;2.87;;;1.70;;
28529;SDS011;15737;49.760;6.632;2022-08-21T00:03:18;3.40;;;1.60;;
28529;SDS011;15737;49.760;6.632;2022-08-21T00:05:46;4.10;;;2.03;;
28529;SDS011;15737;49.760;6.632;2022-08-21T00:08:15;3.83;;;1.60;;
28529;SDS011;15737;49.760;6.632;2022-08-21T00:10:42;4.77;;;1.80;;
28529;SDS011;15737;49.760;6.632;2022-08-21T00:13:08;4.43;;;2.30;;
28529;SDS011;15737;49.760;6.632;2022-08-21T00:15:35;3.13;;;1.87;;
28529;SDS011;15737;49.760;6.632;2022-08-21T00:18:02;7.53;;;2.40;;
28529;SDS011;15737;49.760;6.632;2022-08-21T00:20:29;5.63;;;2.10;;
28529;SDS011;15737;49.760;6.632;2022-08-21T00:22:56;4.03;;;1.80;;
28529;SDS011;15737;49.760;6.632;2022-08-21T00:25:21;4.23;;;2.37;;
28529;SDS011;15737;49.760;6.632;2022-08-21T00:27:47;8.07;;;2.13;;
28529;SDS011;15737;49.760;6.632;2022-08-21T00:30:13;5.60;;;1.80;;
28529;SDS011;15737;49.760;6.632;2022-08-21T00:32:42;5.23;;;2.10;;
28529;SDS011;15737;49.760;6.632;2022-08-21T00:35:09;3.47;;;2.00;;
28529;SDS011;15737;49.760;6.632;2022-08-21T00:37:38;3.80;;;2.20;;
28529;SDS011;15737;49.760;6.632;2022-08-21T00:40:06;4.17;;;2.20;;
28529;SDS011;15737;49.760;6.632;2022-08-21T00:42:33;3.83;;;2.10;;
28529;SDS011;15737;49.760;6.632;2022-08-21T00:44:59;3.53;;;1.70;;
28529;SDS011;15737;49.760;6.632;2022-08-21T00:47:25;3.93;;;2.33;;
28529;SDS011;15737;49.760;6.632;2022-08-21T00:49:50;4.77;;;2.37;;
28529;SDS011;15737;49.760;6.632;2022-08-21T00:52:20;4.00;;;2.50;;
28529;SDS011;15737;49.760;6.632;2022-08-21T00:54:49;2.70;;;1.90;;
28529;SDS011;15737;49.760;6.632;2022-08-21T00:57:19;2.73;;;1.87;;
28529;SDS011;15737;49.760;6.632;2022-08-21T00:59:49;4.97;;;2.07;;
28529;SDS011;15737;49.760;6.632;2022-08-21T01:02:18;1.77;;;1.63;;
28529;SDS011;15737;49.760;6.632;2022-08-21T01:04:45;4.70;;;1.87;;
28529;SDS011;15737;49.760;6.632;2022-08-21T01:07:11;6.00;;;2.37;;
28529;SDS011;15737;49.760;6.632;2022-08-21T01:09:37;3.83;;;1.90;;
28529;SDS011;15737;49.760;6.632;2022-08-21T01:12:04;6.20;;;2.40;;
28529;SDS011;15737;49.760;6.632;2022-08-21T01:14:30;2.63;;;1.77;;
28529;SDS011;15737;49.760;6.632;2022-08-21T01:16:57;3.23;;;2.20;;
28529;SDS011;15737;49.760;6.632;2022-08-21T01:19:24;4.10;;;2.10;;
28529;SDS011;15737;49.760;6.632;2022-08-21T01:21:50;4.23;;;2.20;;
28529;SDS011;15737;49.760;6.632;2022-08-21T01:24:16;3.63;;;2.17;;
28529;SDS011;15737;49.760;6.632;2022-08-21T01:26:42;2.93;;;2.07;;
28529;SDS011;15737;49.760;6.632;2022-08-21T01:32:09;3.87;;;2.03;;
28529;SDS011;15737;49.760;6.632;2022-08-21T01:34:38;2.47;;;1.90;;
28529;SDS011;15737;49.760;6.632;2022-08-21T01:37:05;5.37;;;2.17;;
28529;SDS011;15737;49.760;6.632;2022-08-21T01:39:30;4.77;;;2.13;;
28529;SDS011;15737;49.760;6.632;2022-08-21T01:41:56;4.20;;;2.20;;
28529;SDS011;15737;49.760;6.632;2022-08-21T01:44:22;3.97;;;2.13;;
28529;SDS011;15737;49.760;6.632;2022-08-21T01:46:48;6.20;;;2.30;;
28529;SDS011;15737;49.760;6.632;2022-08-21T01:49:15;3.77;;;2.07;;
28529;SDS011;15737;49.760;6.632;2022-08-21T01:51:41;5.43;;;2.10;;
28529;SDS011;15737;49.760;6.632;2022-08-21T01:54:07;3.70;;;2.17;;
28529;SDS011;15737;49.760;6.632;2022-08-21T01:56:39;4.07;;;2.10;;
28529;SDS011;15737;49.760;6.632;2022-08-21T01:59:07;6.43;;;2.13;;
28529;SDS011;15737;49.760;6.632;2022-08-21T02:01:33;2.17;;;1.97;;
28529;SDS011;15737;49.760;6.632;2022-08-21T02:03:59;3.33;;;2.23;;
28529;SDS011;15737;49.760;6.632;2022-08-21T02:06:25;3.07;;;1.80;;
28529;SDS011;15737;49.760;6.632;2022-08-21T02:08:51;3.73;;;2.20;;
28529;SDS011;15737;49.760;6.632;2022-08-21T02:11:17;2.60;;;2.03;;
28529;SDS011;15737;49.760;6.632;2022-08-21T02:13:43;4.47;;;1.90;;
28529;SDS011;15737;49.760;6.632;2022-08-21T02:16:10;6.60;;;2.50;;
28529;SDS011;15737;49.760;6.632;2022-08-21T02:18:37;3.67;;;2.50;;
28529;SDS011;15737;49.760;6.632;2022-08-21T02:21:03;7.70;;;2.33;;
28529;SDS011;15737;49.760;6.632;2022-08-21T02:23:30;3.73;;;2.50;;
28529;SDS011;15737;49.760;6.632;2022-08-21T02:25:57;4.97;;;2.43;;
28529;SDS011;15737;49.760;6.632;2022-08-21T02:28:24;4.67;;;2.30;;
28529;SDS011;15737;49.760;6.632;2022-08-21T02:30:49;5.00;;;2.40;;
28529;SDS011;15737;49.760;6.632;2022-08-21T02:33:16;4.07;;;2.93;;
28529;SDS011;15737;49.760;6.632;2022-08-21T02:35:43;4.67;;;2.07;;
28529;SDS011;15737;49.760;6.632;2022-08-21T02:38:11;5.80;;;2.97;;
28529;SDS011;15737;49.760;6.632;2022-08-21T02:40:46;4.53;;;2.50;;
28529;SDS011;15737;49.760;6.632;2022-08-21T02:43:13;2.87;;;2.07;;
28529;SDS011;15737;49.760;6.632;2022-08-21T02:45:40;4.23;;;2.50;;
28529;SDS011;15737;49.760;6.632;2022-08-21T02:48:08;4.60;;;2.60;;
28529;SDS011;15737;49.760;6.632;2022-08-21T02:50:37;3.10;;;2.53;;
28529;SDS011;15737;49.760;6.632;2022-08-21T02:53:11;2.50;;;2.13;;
28529;SDS011;15737;49.760;6.632;2022-08-21T02:55:41;8.57;;;2.33;;
28529;SDS011;15737;49.760;6.632;2022-08-21T02:58:12;4.27;;;2.20;;
28529;SDS011;15737;49.760;6.632;2022-08-21T03:00:39;5.10;;;2.17;;
28529;SDS011;15737;49.760;6.632;2022-08-21T03:03:05;4.87;;;2.40;;
28529;SDS011;15737;49.760;6.632;2022-08-21T03:05:31;3.57;;;2.50;;
28529;SDS011;15737;49.760;6.632;2022-08-21T03:08:00;5.57;;;2.57;;
28529;SDS011;15737;49.760;6.632;2022-08-21T03:10:27;4.20;;;2.40;;
28529;SDS011;15737;49.760;6.632;2022-08-21T03:12:53;3.70;;;2.57;;
28529;SDS011;15737;49.760;6.632;2022-08-21T03:15:20;4.97;;;2.40;;
28529;SDS011;15737;49.760;6.632;2022-08-21T03:17:49;4.70;;;2.40;;
28529;SDS011;15737;49.760;6.632;2022-08-21T03:20:16;5.90;;;2.47;;
28529;SDS011;15737;49.760;6.632;2022-08-21T03:22:42;5.80;;;2.43;;
28529;SDS011;15737;49.760;6.632;2022-08-21T03:25:08;7.77;;;2.90;;
28529;SDS011;15737;49.760;6.632;2022-08-21T03:27:35;3.73;;;2.30;;
28529;SDS011;15737;49.760;6.632;2022-08-21T03:30:02;5.00;;;2.93;;
28529;SDS011;15737;49.760;6.632;2022-08-21T03:32:29;4.20;;;2.30;;
28529;SDS011;15737;49.760;6.632;2022-08-21T03:34:56;5.80;;;2.60;;
28529;SDS011;15737;49.760;6.632;2022-08-21T03:37:22;3.30;;;2.53;;
28529;SDS011;15737;49.760;6.632;2022-08-21T03:39:49;3.07;;;2.50;;
28529;SDS011;15737;49.760;6.632;2022-08-21T03:42:15;4.70;;;2.40;;
28529;SDS011;15737;49.760;6.632;2022-08-21T03:44:40;3.87;;;2.50;;
28529;SDS011;15737;49.760;6.632;2022-08-21T03:47:06;3.40;;;2.87;;
28529;SDS011;15737;49.760;6.632;2022-08-21T03:49:32;4.83;;;2.67;;
28529;SDS011;15737;49.760;6.632;2022-08-21T03:51:58;5.63;;;2.30;;
28529;SDS011;15737;49.760;6.632;2022-08-21T03:54:24;3.53;;;2.37;;
28529;SDS011;15737;49.760;6.632;2022-08-21T03:56:50;4.97;;;2.30;;
28529;SDS011;15737;49.760;6.632;2022-08-21T03:59:16;5.87;;;2.40;;
28529;SDS011;15737;49.760;6.632;2022-08-21T04:01:56;6.90;;;2.47;;
28529;SDS011;15737;49.760;6.632;2022-08-21T04:04:24;5.10;;;2.57;;
28529;SDS011;15737;49.760;6.632;2022-08-21T04:06:51;9.63;;;2.97;;
28529;SDS011;15737;49.760;6.632;2022-08-21T04:09:17;5.50;;;2.30;;
28529;SDS011;15737;49.760;6.632;2022-08-21T04:11:43;4.87;;;3.00;;
28529;SDS011;15737;49.760;6.632;2022-08-21T04:14:10;6.57;;;2.97;;
28529;SDS011;15737;49.760;6.632;2022-08-21T04:16:37;4.17;;;2.60;;
28529;SDS011;15737;49.760;6.632;2022-08-21T04:19:02;2.67;;;2.47;;
28529;SDS011;15737;49.760;6.632;2022-08-21T04:21:28;4.00;;;2.30;;
28529;SDS011;15737;49.760;6.632;2022-08-21T04:23:55;4.10;;;2.67;;
28529;SDS011;15737;49.760;6.632;2022-08-21T04:26:21;3.40;;;2.93;;
28529;SDS011;15737;49.760;6.632;2022-08-21T04:28:46;4.70;;;2.90;;
28529;SDS011;15737;49.760;6.632;2022-08-21T04:31:12;4.57;;;2.50;;
28529;SDS011;15737;49.760;6.632;2022-08-21T04:33:37;5.03;;;2.50;;
28529;SDS011;15737;49.760;6.632;2022-08-21T04:36:03;2.57;;;2.30;;
28529;SDS011;15737;49.760;6.632;2022-08-21T04:38:29;3.33;;;2.57;;
28529;SDS011;15737;49.760;6.632;2022-08-21T04:40:56;4.17;;;2.40;;
28529;SDS011;15737;49.760;6.632;2022-08-21T04:43:22;3.37;;;2.40;;
28529;SDS011;15737;49.760;6.632;2022-08-21T04:45:48;4.53;;;2.80;;
28529;SDS011;15737;49.760;6.632;2022-08-21T04:48:16;4.97;;;2.53;;
28529;SDS011;15737;49.760;6.632;2022-08-21T04:50:51;4.20;;;2.13;;
28529;SDS011;15737;49.760;6.632;2022-08-21T04:53:30;6.77;;;2.60;;
28529;SDS011;15737;49.760;6.632;2022-08-21T04:56:23;2.60;;;2.33;;
28529;SDS011;15737;49.760;6.632;2022-08-21T04:58:52;3.07;;;2.73;;
28529;SDS011;15737;49.760;6.632;2022-08-21T05:01:21;3.57;;;2.57;;
28529;SDS011;15737;49.760;6.632;2022-08-21T05:03:49;2.73;;;2.17;;
28529;SDS011;15737;49.760;6.632;2022-08-21T05:06:17;2.83;;;2.53;;
28529;SDS011;15737;49.760;6.632;2022-08-21T05:08:43;3.37;;;2.47;;
28529;SDS011;15737;49.760;6.632;2022-08-21T05:11:11;3.90;;;2.37;;
28529;SDS011;15737;49.760;6.632;2022-08-21T05:13:38;6.47;;;2.63;;
28529;SDS011;15737;49.760;6.632;2022-08-21T05:16:06;6.60;;;3.00;;
28529;SDS011;15737;49.760;6.632;2022-08-21T05:18:31;3.73;;;2.37;;
28529;SDS011;15737;49.760;6.632;2022-08-21T05:20:57;4.47;;;2.93;;
28529;SDS011;15737;49.760;6.632;2022-08-21T05:23:23;2.50;;;2.17;;
28529;SDS011;15737;49.760;6.632;2022-08-21T05:25:49;4.90;;;2.13;;
28529;SDS011;15737;49.760;6.632;2022-08-21T05:28:16;6.13;;;3.07;;
28529;SDS011;15737;49.760;6.632;2022-08-21T05:30:42;3.63;;;2.40;;
28529;SDS011;15737;49.760;6.632;2022-08-21T05:33:09;4.10;;;2.30;;
28529;SDS011;15737;49.760;6.632;2022-08-21T05:35:35;3.67;;;2.33;;
28529;SDS011;15737;49.760;6.632;2022-08-21T05:38:02;5.20;;;2.10;;
28529;SDS011;15737;49.760;6.632;2022-08-21T05:40:28;3.67;;;2.13;;
28529;SDS011;15737;49.760;6.632;2022-08-21T05:42:54;6.77;;;2.40;;
28529;SDS011;15737;49.760;6.632;2022-08-21T05:45:21;4.37;;;2.33;;
28529;SDS011;15737;49.760;6.632;2022-08-21T05:47:49;3.47;;;2.20;;
28529;SDS011;15737;49.760;6.632;2022-08-21T05:50:14;4.23;;;2.20;;
28529;SDS011;15737;49.760;6.632;2022-08-21T05:52:40;3.83;;;2.50;;
28529;SDS011;15737;49.760;6.632;2022-08-21T05:55:05;2.80;;;2.40;;
28529;SDS011;15737;49.760;6.632;2022-08-21T05:57:31;5.78;;;2.72;;
28529;SDS011;15737;49.760;6.632;2022-08-21T05:59:57;3.07;;;2.23;;
28529;SDS011;15737;49.760;6.632;2022-08-21T06:02:22;4.88;;;2.63;;
28529;SDS011;15737;49.760;6.632;2022-08-21T06:04:48;2.83;;;2.10;;
28529;SDS011;15737;49.760;6.632;2022-08-21T06:07:14;3.75;;;2.03;;
28529;SDS011;15737;49.760;6.632;2022-08-21T06:09:40;2.20;;;1.90;;
28529;SDS011;15737;49.760;6.632;2022-08-21T06:12:06;2.95;;;2.10;;
28529;SDS011;15737;49.760;6.632;2022-08-21T06:14:34;2.33;;;2.00;;
28529;SDS011;15737;49.760;6.632;2022-08-21T06:17:06;4.28;;;2.42;;
28529;SDS011;15737;49.760;6.632;2022-08-21T06:19:34;3.80;;;2.45;;
28529;SDS011;15737;49.760;6.632;2022-08-21T06:22:00;3.50;;;2.15;;
28529;SDS011;15737;49.760;6.632;2022-08-21T06:24:25;5.38;;;2.50;;
28529;SDS011;15737;49.760;6.632;2022-08-21T06:26:51;2.97;;;2.20;;
28529;SDS011;15737;49.760;6.632;2022-08-21T06:29:17;21.92;;;20.75;;
28529;SDS011;15737;49.760;6.632;2022-08-21T06:31:44;10.27;;;9.60;;
28529;SDS011;15737;49.760;6.632;2022-08-21T06:34:10;6.28;;;3.92;;
28529;SDS011;15737;49.760;6.632;2022-08-21T06:36:36;2.80;;;2.50;;
28529;SDS011;15737;49.760;6.632;2022-08-21T06:39:02;9.45;;;2.53;;
28529;SDS011;15737;49.760;6.632;2022-08-21T06:41:28;3.22;;;2.38;;
28529;SDS011;15737;49.760;6.632;2022-08-21T06:43:54;3.88;;;2.35;;
28529;SDS011;15737;49.760;6.632;2022-08-21T06:46:21;4.80;;;2.85;;
28529;SDS011;15737;49.760;6.632;2022-08-21T06:48:47;3.42;;;2.20;;
28529;SDS011;15737;49.760;6.632;2022-08-21T06:51:13;4.10;;;2.40;;
28529;SDS011;15737;49.760;6.632;2022-08-21T06:53:38;2.72;;;2.00;;
28529;SDS011;15737;49.760;6.632;2022-08-21T06:56:04;7.00;;;3.05;;
28529;SDS011;15737;49.760;6.632;2022-08-21T06:58:30;5.28;;;3.03;;
28529;SDS011;15737;49.760;6.632;2022-08-21T07:00:56;2.33;;;2.10;;
28529;SDS011;15737;49.760;6.632;2022-08-21T07:03:29;5.65;;;3.10;;
28529;SDS011;15737;49.760;6.632;2022-08-21T07:06:00;6.45;;;3.25;;
28529;SDS011;15737;49.760;6.632;2022-08-21T07:08:27;16.02;;;15.13;;
28529;SDS011;15737;49.760;6.632;2022-08-21T07:10:53;19.02;;;17.95;;
28529;SDS011;15737;49.760;6.632;2022-08-21T07:13:21;20.55;;;19.20;;
28529;SDS011;15737;49.760;6.632;2022-08-21T07:15:47;58.17;;;55.08;;
28529;SDS011;15737;49.760;6.632;2022-08-21T07:18:13;69.03;;;65.45;;
28529;SDS011;15737;49.760;6.632;2022-08-21T07:20:39;81.65;;;77.60;;
28529;SDS011;15737;49.760;6.632;2022-08-21T07:23:07;74.32;;;70.45;;
28529;SDS011;15737;49.760;6.632;2022-08-21T07:25:43;71.57;;;67.68;;
28529;SDS011;15737;49.760;6.632;2022-08-21T07:30:44;77.20;;;73.15;;
28529;SDS011;15737;49.760;6.632;2022-08-21T07:33:10;70.22;;;66.53;;
28529;SDS011;15737;49.760;6.632;2022-08-21T07:35:36;53.95;;;50.95;;
28529;SDS011;15737;49.760;6.632;2022-08-21T07:38:02;75.10;;;71.22;;
28529;SDS011;15737;49.760;6.632;2022-08-21T07:40:27;67.75;;;63.95;;
28529;SDS011;15737;49.760;6.632;2022-08-21T07:42:53;61.42;;;58.28;;
28529;SDS011;15737;49.760;6.632;2022-08-21T07:45:20;66.45;;;62.58;;
28529;SDS011;15737;49.760;6.632;2022-08-21T07:47:47;66.97;;;63.40;;
28529;SDS011;15737;49.760;6.632;2022-08-21T07:50:14;73.40;;;69.68;;
28529;SDS011;15737;49.760;6.632;2022-08-21T07:52:40;79.63;;;75.53;;
28529;SDS011;15737;49.760;6.632;2022-08-21T07:55:11;84.32;;;80.15;;
28529;SDS011;15737;49.760;6.632;2022-08-21T07:57:39;96.10;;;90.70;;
28529;SDS011;15737;49.760;6.632;2022-08-21T08:00:06;93.80;;;88.97;;
28529;SDS011;15737;49.760;6.632;2022-08-21T08:02:34;113.68;;;107.97;;
28529;SDS011;15737;49.760;6.632;2022-08-21T08:05:04;110.10;;;104.53;;
28529;SDS011;15737;49.760;6.632;2022-08-21T08:07:32;53.13;;;50.22;;
28529;SDS011;15737;49.760;6.632;2022-08-21T08:09:59;42.55;;;40.20;;
28529;SDS011;15737;49.760;6.632;2022-08-21T08:12:25;24.10;;;22.70;;
28529;SDS011;15737;49.760;6.632;2022-08-21T08:14:57;39.70;;;37.55;;
28529;SDS011;15737;49.760;6.632;2022-08-21T08:17:24;50.38;;;47.75;;
28529;SDS011;15737;49.760;6.632;2022-08-21T08:19:50;5.00;;;2.67;;
28529;SDS011;15737;49.760;6.632;2022-08-21T08:22:16;41.08;;;38.85;;
28529;SDS011;15737;49.760;6.632;2022-08-21T08:24:45;34.60;;;32.65;;
28529;SDS011;15737;49.760;6.632;2022-08-21T08:27:11;4.70;;;2.80;;
28529;SDS011;15737;49.760;6.632;2022-08-21T08:29:37;6.63;;;2.38;;
28529;SDS011;15737;49.760;6.632;2022-08-21T08:32:03;3.60;;;1.90;;
28529;SDS011;15737;49.760;6.632;2022-08-21T08:34:30;6.90;;;2.65;;
28529;SDS011;15737;49.760;6.632;2022-08-21T08:36:55;8.90;;;2.45;;
28529;SDS011;15737;49.760;6.632;2022-08-21T08:39:23;4.63;;;2.05;;
28529;SDS011;15737;49.760;6.632;2022-08-21T08:41:49;5.78;;;2.83;;
28529;SDS011;15737;49.760;6.632;2022-08-21T08:44:24;3.83;;;2.50;;
28529;SDS011;15737;49.760;6.632;2022-08-21T08:46:50;4.40;;;2.60;;
28529;SDS011;15737;49.760;6.632;2022-08-21T08:52:04;3.60;;;2.25;;
28529;SDS011;15737;49.760;6.632;2022-08-21T08:54:44;5.95;;;2.35;;
28529;SDS011;15737;49.760;6.632;2022-08-21T08:57:17;5.72;;;2.30;;
28529;SDS011;15737;49.760;6.632;2022-08-21T08:59:46;6.85;;;2.40;;
28529;SDS011;15737;49.760;6.632;2022-08-21T09:02:15;2.53;;;1.92;;
28529;SDS011;15737;49.760;6.632;2022-08-21T09:04:42;4.10;;;2.15;;
28529;SDS011;15737;49.760;6.632;2022-08-21T09:15:32;5.93;;;2.08;;
28529;SDS011;15737;49.760;6.632;2022-08-21T09:18:21;3.28;;;2.22;;
28529;SDS011;15737;49.760;6.632;2022-08-21T09:21:18;4.80;;;2.55;;
28529;SDS011;15737;49.760;6.632;2022-08-21T09:23:57;5.25;;;2.30;;
28529;SDS011;15737;49.760;6.632;2022-08-21T09:26:27;5.78;;;2.00;;
28529;SDS011;15737;49.760;6.632;2022-08-21T09:29:15;5.07;;;2.28;;
28529;SDS011;15737;49.760;6.632;2022-08-21T09:31:45;4.65;;;2.17;;
28529;SDS011;15737;49.760;6.632;2022-08-21T09:34:10;5.22;;;2.22;;
28529;SDS011;15737;49.760;6.632;2022-08-21T09:39:06;3.20;;;2.00;;
28529;SDS011;15737;49.760;6.632;2022-08-21T09:41:34;2.97;;;1.85;;
28529;SDS011;15737;49.760;6.632;2022-08-21T09:44:00;5.13;;;1.88;;
28529;SDS011;15737;49.760;6.632;2022-08-21T09:46:27;2.17;;;1.45;;
28529;SDS011;15737;49.760;6.632;2022-08-21T09:49:00;7.70;;;2.08;;
28529;SDS011;15737;49.760;6.632;2022-08-21T09:51:36;6.03;;;1.73;;
28529;SDS011;15737;49.760;6.632;2022-08-21T09:56:35;3.38;;;1.70;;
28529;SDS011;15737;49.760;6.632;2022-08-21T09:59:34;3.78;;;2.00;;
28529;SDS011;15737;49.760;6.632;2022-08-21T10:02:03;4.32;;;1.65;;
28529;SDS011;15737;49.760;6.632;2022-08-21T10:04:59;6.35;;;1.92;;
28529;SDS011;15737;49.760;6.632;2022-08-21T10:07:29;2.97;;;1.60;;
28529;SDS011;15737;49.760;6.632;2022-08-21T10:10:07;3.97;;;1.85;;
28529;SDS011;15737;49.760;6.632;2022-08-21T10:18:35;5.18;;;1.73;;
28529;SDS011;15737;49.760;6.632;2022-08-21T10:21:04;3.67;;;1.70;;
28529;SDS011;15737;49.760;6.632;2022-08-21T10:35:14;5.97;;;1.70;;
28529;SDS011;15737;49.760;6.632;2022-08-21T10:40:38;3.60;;;1.88;;
28529;SDS011;15737;49.760;6.632;2022-08-21T10:48:38;7.20;;;2.08;;
28529;SDS011;15737;49.760;6.632;2022-08-21T10:54:05;5.35;;;1.75;;
28529;SDS011;15737;49.760;6.632;2022-08-21T10:56:40;3.42;;;1.90;;
28529;SDS011;15737;49.760;6.632;2022-08-21T10:59:25;5.15;;;2.30;;
28529;SDS011;15737;49.760;6.632;2022-08-21T11:02:03;2.75;;;1.75;;
28529;SDS011;15737;49.760;6.632;2022-08-21T11:07:22;3.67;;;1.80;;
28529;SDS011;15737;49.760;6.632;2022-08-21T11:09:55;2.22;;;1.48;;
28529;SDS011;15737;49.760;6.632;2022-08-21T11:12:41;3.05;;;1.60;;
28529;SDS011;15737;49.760;6.632;2022-08-21T11:23:57;4.28;;;2.05;;
28529;SDS011;15737;49.760;6.632;2022-08-21T11:26:44;4.60;;;1.80;;
28529;SDS011;15737;49.760;6.632;2022-08-21T11:29:22;2.13;;;1.33;;
28529;SDS011;15737;49.760;6.632;2022-08-21T11:34:40;3.55;;;1.65;;
28529;SDS011;15737;49.760;6.632;2022-08-21T11:52:17;4.63;;;1.80;;
28529;SDS011;15737;49.760;6.632;2022-08-21T11:55:07;3.58;;;1.80;;
28529;SDS011;15737;49.760;6.632;2022-08-21T11:58:18;5.30;;;1.70;;
28529;SDS011;15737;49.760;6.632;2022-08-21T12:00:49;2.95;;;1.30;;
28529;SDS011;15737;49.760;6.632;2022-08-21T12:03:22;2.95;;;1.48;;
28529;SDS011;15737;49.760;6.632;2022-08-21T12:05:54;3.67;;;1.40;;
28529;SDS011;15737;49.760;6.632;2022-08-21T12:08:27;3.38;;;1.65;;
28529;SDS011;15737;49.760;6.632;2022-08-21T12:13:36;4.97;;;1.52;;
28529;SDS011;15737;49.760;6.632;2022-08-21T12:16:09;7.20;;;1.65;;
28529;SDS011;15737;49.760;6.632;2022-08-21T12:18:37;2.67;;;1.65;;
28529;SDS011;15737;49.760;6.632;2022-08-21T12:24:05;3.83;;;1.67;;
28529;SDS011;15737;49.760;6.632;2022-08-21T12:29:21;4.80;;;1.50;;
28529;SDS011;15737;49.760;6.632;2022-08-21T12:31:52;5.63;;;1.50;;
28529;SDS011;15737;49.760;6.632;2022-08-21T12:34:22;2.63;;;1.50;;
28529;SDS011;15737;49.760;6.632;2022-08-21T12:36:58;3.28;;;1.60;;
28529;SDS011;15737;49.760;6.632;2022-08-21T12:39:33;5.68;;;1.85;;
28529;SDS011;15737;49.760;6.632;2022-08-21T12:42:06;2.03;;;1.55;;
28529;SDS011;15737;49.760;6.632;2022-08-21T12:44:43;4.88;;;1.70;;
28529;SDS011;15737;49.760;6.632;2022-08-21T12:49:52;4.22;;;1.50;;
28529;SDS011;15737;49.760;6.632;2022-08-21T12:52:28;3.83;;;1.20;;
28529;SDS011;15737;49.760;6.632;2022-08-21T12:54:57;3.50;;;1.55;;
28529;SDS011;15737;49.760;6.632;2022-08-21T12:59:55;2.97;;;1.27;;
28529;SDS011;15737;49.760;6.632;2022-08-21T13:02:25;4.10;;;1.40;;
28529;SDS011;15737;49.760;6.632;2022-08-21T13:04:56;2.45;;;1.58;;
28529;SDS011;15737;49.760;6.632;2022-08-21T13:07:29;2.72;;;1.63;;
28529;SDS011;15737;49.760;6.632;2022-08-21T13:10:03;2.40;;;1.45;;
28529;SDS011;15737;49.760;6.632;2022-08-21T13:12:41;3.22;;;1.80;;
28529;SDS011;15737;49.760;6.632;2022-08-21T13:15:07;4.45;;;1.90;;
28529;SDS011;15737;49.760;6.632;2022-08-21T13:17:39;2.72;;;1.73;;
28529;SDS011;15737;49.760;6.632;2022-08-21T13:20:09;3.85;;;1.95;;
28529;SDS011;15737;49.760;6.632;2022-08-21T13:22:44;2.35;;;1.60;;
28529;SDS011;15737;49.760;6.632;2022-08-21T13:25:11;3.72;;;1.75;;
28529;SDS011;15737;49.760;6.632;2022-08-21T13:27:38;2.25;;;1.63;;
28529;SDS011;15737;49.760;6.632;2022-08-21T13:30:09;2.38;;;1.63;;
28529;SDS011;15737;49.760;6.632;2022-08-21T13:32:43;5.45;;;1.60;;
28529;SDS011;15737;49.760;6.632;2022-08-21T13:35:19;7.68;;;1.85;;
28529;SDS011;15737;49.760;6.632;2022-08-21T13:37:48;2.75;;;1.58;;
28529;SDS011;15737;49.760;6.632;2022-08-21T13:40:18;3.38;;;1.88;;
28529;SDS011;15737;49.760;6.632;2022-08-21T13:42:50;2.88;;;1.42;;
28529;SDS011;15737;49.760;6.632;2022-08-21T13:45:30;3.08;;;1.38;;
28529;SDS011;15737;49.760;6.632;2022-08-21T13:47:57;2.15;;;1.52;;
28529;SDS011;15737;49.760;6.632;2022-08-21T13:50:25;2.63;;;1.70;;
28529;SDS011;15737;49.760;6.632;2022-08-21T13:53:01;3.60;;;1.48;;
28529;SDS011;15737;49.760;6.632;2022-08-21T13:58:11;5.53;;;1.80;;
28529;SDS011;15737;49.760;6.632;2022-08-21T14:00:55;4.47;;;1.75;;
28529;SDS011;15737;49.760;6.632;2022-08-21T14:05:59;1.70;;;1.35;;
28529;SDS011;15737;49.760;6.632;2022-08-21T14:08:31;3.38;;;1.50;;
28529;SDS011;15737;49.760;6.632;2022-08-21T14:11:05;5.03;;;1.85;;
28529;SDS011;15737;49.760;6.632;2022-08-21T14:13:49;2.42;;;1.75;;
28529;SDS011;15737;49.760;6.632;2022-08-21T14:16:22;2.95;;;1.70;;
28529;SDS011;15737;49.760;6.632;2022-08-21T14:21:31;3.10;;;1.60;;
28529;SDS011;15737;49.760;6.632;2022-08-21T14:24:01;5.60;;;1.55;;
28529;SDS011;15737;49.760;6.632;2022-08-21T14:26:36;4.45;;;1.50;;
28529;SDS011;15737;49.760;6.632;2022-08-21T14:29:11;2.63;;;1.60;;
28529;SDS011;15737;49.760;6.632;2022-08-21T14:31:39;3.67;;;1.50;;
28529;SDS011;15737;49.760;6.632;2022-08-21T14:34:05;2.80;;;1.38;;
28529;SDS011;15737;49.760;6.632;2022-08-21T14:36:30;1.45;;;1.35;;
28529;SDS011;15737;49.760;6.632;2022-08-21T14:38:56;5.30;;;1.60;;
28529;SDS011;15737;49.760;6.632;2022-08-21T14:41:23;2.97;;;1.50;;
28529;SDS011;15737;49.760;6.632;2022-08-21T14:43:52;2.90;;;1.50;;
28529;SDS011;15737;49.760;6.632;2022-08-21T14:46:29;2.20;;;1.40;;
28529;SDS011;15737;49.760;6.632;2022-08-21T14:48:56;2.80;;;1.40;;
28529;SDS011;15737;49.760;6.632;2022-08-21T14:51:22;2.70;;;1.23;;
28529;SDS011;15737;49.760;6.632;2022-08-21T14:53:48;2.97;;;1.35;;
28529;SDS011;15737;49.760;6.632;2022-08-21T14:56:13;2.63;;;1.50;;
28529;SDS011;15737;49.760;6.632;2022-08-21T14:58:41;4.47;;;1.40;;
28529;SDS011;15737;49.760;6.632;2022-08-21T15:01:09;2.33;;;1.08;;
28529;SDS011;15737;49.760;6.632;2022-08-21T15:03:36;1.20;;;1.10;;
28529;SDS011;15737;49.760;6.632;2022-08-21T15:06:03;5.60;;;1.35;;
28529;SDS011;15737;49.760;6.632;2022-08-21T15:08:30;2.55;;;1.40;;
28529;SDS011;15737;49.760;6.632;2022-08-21T15:10:55;2.10;;;1.20;;
28529;SDS011;15737;49.760;6.632;2022-08-21T15:13:21;4.03;;;1.25;;
28529;SDS011;15737;49.760;6.632;2022-08-21T15:15:48;3.00;;;1.27;;
28529;SDS011;15737;49.760;6.632;2022-08-21T15:18:17;4.72;;;1.42;;
28529;SDS011;15737;49.760;6.632;2022-08-21T15:20:46;2.35;;;1.23;;
28529;SDS011;15737;49.760;6.632;2022-08-21T15:23:12;2.50;;;1.00;;
28529;SDS011;15737;49.760;6.632;2022-08-21T15:25:40;4.15;;;1.50;;
28529;SDS011;15737;49.760;6.632;2022-08-21T15:28:10;1.92;;;1.10;;
28529;SDS011;15737;49.760;6.632;2022-08-21T15:30:37;2.60;;;1.23;;
28529;SDS011;15737;49.760;6.632;2022-08-21T15:33:04;2.10;;;1.27;;
28529;SDS011;15737;49.760;6.632;2022-08-21T15:35:30;1.80;;;1.40;;
28529;SDS011;15737;49.760;6.632;2022-08-21T15:37:56;2.45;;;1.48;;
28529;SDS011;15737;49.760;6.632;2022-08-21T15:40:21;4.47;;;1.30;;
28529;SDS011;15737;49.760;6.632;2022-08-21T15:42:47;1.92;;;1.30;;
28529;SDS011;15737;49.760;6.632;2022-08-21T15:45:13;2.75;;;1.25;;
28529;SDS011;15737;49.760;6.632;2022-08-21T15:47:42;3.35;;;1.30;;
28529;SDS011;15737;49.760;6.632;2022-08-21T15:50:10;2.55;;;1.27;;
28529;SDS011;15737;49.760;6.632;2022-08-21T15:52:37;3.03;;;1.30;;
28529;SDS011;15737;49.760;6.632;2022-08-21T15:55:04;2.70;;;1.23;;
28529;SDS011;15737;49.760;6.632;2022-08-21T15:57:30;3.58;;;1.63;;
28529;SDS011;15737;49.760;6.632;2022-08-21T15:59:57;3.45;;;1.10;;
28529;SDS011;15737;49.760;6.632;2022-08-21T16:02:38;1.40;;;0.90;;
28529;SDS011;15737;49.760;6.632;2022-08-21T16:05:07;2.05;;;1.30;;
28529;SDS011;15737;49.760;6.632;2022-08-21T16:07:35;2.83;;;1.20;;
28529;SDS011;15737;49.760;6.632;2022-08-21T16:10:00;2.92;;;0.98;;
28529;SDS011;15737;49.760;6.632;2022-08-21T16:12:30;4.40;;;1.33;;
28529;SDS011;15737;49.760;6.632;2022-08-21T16:14:58;4.18;;;1.50;;
28529;SDS011;15737;49.760;6.632;2022-08-21T16:17:26;1.50;;;1.00;;
28529;SDS011;15737;49.760;6.632;2022-08-21T16:19:54;1.30;;;1.00;;
28529;SDS011;15737;49.760;6.632;2022-08-21T16:22:20;2.78;;;1.20;;
28529;SDS011;15737;49.760;6.632;2022-08-21T16:24:46;3.53;;;1.20;;
28529;SDS011;15737;49.760;6.632;2022-08-21T16:27:11;3.20;;;1.00;;
28529;SDS011;15737;49.760;6.632;2022-08-21T16:29:38;2.65;;;1.23;;
28529;SDS011;15737;49.760;6.632;2022-08-21T16:32:04;2.13;;;1.13;;
28529;SDS011;15737;49.760;6.632;2022-08-21T16:34:30;3.22;;;1.17;;
28529;SDS011;15737;49.760;6.632;2022-08-21T16:36:57;1.05;;;0.85;;